Nal'chik, Russia
Current Conditions -  °F | °C
As of 4:00 AM on Thursday 23 Oct 2014 (Local Time) from URMN Reporting Station
Clear Clear  
Wind Chill: 42°   Ceiling: Unl
Heat Index: 45°   Visibility: 6mi
Dew Point: 36°   Wind: 4mph
Humidity: 71%   Direction: 230°SW
Pressure: 29.91"   Gusts: NA
Location:  43.49°N, 43.61°E
Report Text: URMN 230100Z 23002MPS 9999 SKC 07/02 Q1013 NOSIG RMK QFE723SC07
Loading
Personal Weather Stations






























Interactive Weather Map
Tropical Storm Tracking
New forecast layout! Learn more

10-Day Weather Forecast

Advertisements
Track Severe Weather on mobile